createdAt,value
2018-02-06T00:00:52.800Z,14.57
2018-02-06T00:05:56.698Z,16.53
2018-02-06T00:11:00.934Z,16.15
2018-02-06T00:16:05.389Z,15.63
2018-02-06T00:21:09.836Z,15.10
2018-02-06T00:26:13.096Z,15.80
2018-02-06T00:31:17.971Z,14.57
2018-02-06T00:36:22.476Z,14.37
2018-02-06T00:41:26.414Z,14.47
2018-02-06T00:46:29.892Z,14.53
2018-02-06T00:51:34.398Z,14.97
2018-02-06T00:56:37.523Z,14.33
2018-02-06T01:01:44.192Z,14.40
2018-02-06T01:06:47.324Z,15.23
2018-02-06T01:11:51.924Z,15.43
2018-02-06T01:16:55.040Z,14.30
2018-02-06T01:21:59.631Z,14.27
2018-02-06T01:27:03.546Z,13.17
2018-02-06T01:32:07.395Z,14.07
2018-02-06T01:37:12.024Z,13.40
2018-02-06T01:42:16.085Z,14.27
2018-02-06T01:47:20.725Z,14.27
2018-02-06T01:52:24.230Z,15.27
2018-02-06T01:57:28.294Z,13.40
2018-02-06T02:02:32.222Z,15.13
2018-02-06T02:07:35.680Z,14.07
2018-02-06T02:12:40.297Z,14.63
2018-02-06T02:17:44.747Z,14.53
2018-02-06T02:22:48.734Z,15.40
2018-02-06T02:27:53.386Z,14.03
2018-02-06T02:32:56.847Z,15.93
2018-02-06T02:38:02.194Z,14.13
2018-02-06T04:39:38.917Z,14.27
2018-02-06T04:44:42.116Z,13.63
2018-02-06T04:49:46.045Z,14.27
2018-02-06T04:54:50.490Z,14.23
2018-02-06T04:59:54.476Z,14.70
2018-02-06T05:04:57.722Z,15.03
2018-02-06T05:10:02.068Z,14.60
2018-02-06T05:15:05.412Z,15.27
2018-02-06T05:20:09.356Z,13.00
2018-02-06T05:25:14.015Z,14.97
2018-02-06T05:30:18.052Z,14.93
2018-02-06T05:35:21.166Z,13.90
2018-02-06T05:40:25.403Z,13.87
2018-02-06T05:45:29.289Z,14.60
2018-02-06T05:50:32.388Z,15.07
2018-02-06T05:55:36.247Z,14.33
2018-02-06T06:00:40.139Z,15.10
2018-02-06T06:05:43.959Z,14.70
2018-02-06T06:10:47.052Z,15.07
2018-02-06T06:15:50.154Z,17.97
2018-02-06T06:20:53.259Z,15.97
2018-02-06T06:25:57.865Z,13.83
2018-02-06T06:31:00.980Z,14.00
2018-02-06T06:36:04.467Z,14.53
2018-02-06T06:41:07.560Z,14.20
2018-02-06T06:46:10.668Z,14.77
2018-02-06T06:51:14.544Z,14.90
2018-02-06T06:56:19.155Z,14.50
2018-02-06T07:06:23.716Z,14.63
2018-02-06T07:11:27.568Z,14.87
2018-02-06T07:16:31.420Z,13.87
2018-02-06T07:21:35.894Z,14.23
2018-02-06T07:26:40.337Z,14.50
2018-02-06T07:31:44.936Z,14.43
2018-02-06T07:36:49.381Z,14.13
2018-02-06T07:41:53.832Z,15.13
2018-02-06T07:46:57.329Z,15.23
2018-02-06T07:52:01.792Z,14.27
2018-02-06T07:57:06.252Z,14.73
2018-02-06T08:02:10.696Z,15.30
2018-02-06T08:07:13.793Z,15.13
2018-02-06T08:12:18.224Z,14.43
2018-02-06T08:17:22.650Z,14.80
2018-02-06T08:22:26.512Z,14.93
2018-02-06T08:27:30.956Z,15.10
2018-02-06T08:32:34.419Z,14.97
2018-02-06T08:37:37.960Z,14.77
2018-02-06T08:42:42.436Z,15.77
2018-02-06T08:47:47.039Z,14.97
2018-02-06T08:52:51.470Z,14.35
2018-02-06T08:57:56.055Z,16.00
2018-02-06T09:02:59.543Z,16.33
2018-02-06T09:08:03.983Z,15.27
2018-02-06T09:13:07.073Z,15.37
2018-02-06T09:18:11.557Z,15.35
2018-02-06T09:23:14.639Z,15.70
2018-02-06T09:28:18.492Z,15.90
2018-02-06T09:33:21.578Z,15.40
2018-02-06T09:38:24.668Z,16.07
2018-02-06T09:43:28.143Z,16.70
2018-02-06T09:48:31.464Z,16.80
2018-02-06T09:53:37.264Z,18.50
2018-02-06T09:58:40.343Z,18.00
2018-02-06T10:03:44.196Z,18.70
2018-02-06T10:08:47.287Z,18.90
2018-02-06T10:13:51.158Z,19.90
2018-02-06T10:18:54.999Z,20.23
2018-02-06T10:23:58.091Z,20.07
2018-02-06T10:29:01.947Z,21.87
2018-02-06T10:34:06.166Z,20.43
2018-02-06T10:39:10.598Z,20.93
2018-02-06T10:44:14.435Z,19.10
2018-02-06T10:49:17.748Z,20.13
2018-02-06T10:54:21.806Z,20.30
2018-02-06T10:59:25.640Z,19.17
2018-02-06T11:04:29.483Z,18.77
2018-02-06T11:09:32.969Z,19.23
2018-02-06T11:14:36.439Z,19.73
2018-02-06T11:19:39.528Z,19.77
2018-02-06T11:24:42.628Z,19.20
2018-02-06T11:29:46.503Z,18.63
2018-02-06T11:34:49.895Z,19.37
2018-02-06T11:39:53.743Z,20.05
2018-02-06T11:44:57.241Z,18.30
2018-02-06T11:50:01.095Z,18.93
2018-02-06T11:55:05.308Z,17.97
2018-02-06T12:00:08.792Z,18.33
2018-02-06T12:05:11.921Z,18.10
2018-02-06T12:10:15.008Z,19.00
2018-02-06T12:15:18.879Z,19.20
2018-02-06T12:20:21.963Z,17.73
2018-02-06T12:25:26.559Z,19.77
2018-02-06T12:30:29.647Z,17.47
2018-02-06T12:35:34.087Z,18.40
2018-02-06T12:40:38.299Z,18.33
2018-02-06T12:45:41.379Z,19.60
2018-02-06T12:50:44.455Z,19.60
2018-02-06T12:55:48.894Z,19.00
2018-02-06T13:00:51.976Z,19.52
2018-02-06T13:05:55.074Z,19.10
2018-02-06T13:10:59.140Z,19.62
2018-02-06T13:16:03.726Z,18.85
2018-02-06T13:21:08.331Z,18.97
2018-02-06T13:26:11.807Z,18.50
2018-02-06T13:31:16.242Z,18.27
2018-02-06T13:36:21.483Z,18.67
2018-02-06T13:41:25.318Z,18.73
2018-02-06T13:46:29.765Z,18.63
2018-02-06T13:51:34.202Z,19.03
2018-02-06T13:56:37.731Z,18.73
2018-02-06T14:01:41.869Z,17.63
2018-02-06T14:06:46.304Z,19.67
2018-02-06T14:11:50.515Z,20.37
2018-02-06T14:16:53.586Z,20.77
2018-02-06T14:21:57.072Z,19.47
2018-02-06T14:27:00.925Z,20.23
2018-02-06T14:32:05.360Z,20.17
2018-02-06T14:37:09.575Z,21.37
2018-02-06T14:42:12.676Z,23.47
2018-02-06T14:47:16.887Z,23.13
2018-02-06T14:52:20.755Z,22.57
2018-02-06T14:57:23.834Z,22.40
2018-02-06T15:02:27.671Z,24.27
2018-02-06T15:07:31.563Z,23.57
2018-02-06T15:12:35.775Z,22.77
2018-02-06T15:17:38.863Z,25.27
2018-02-06T15:22:43.074Z,22.00
2018-02-06T15:27:46.151Z,23.20
2018-02-06T15:32:50.585Z,24.00
2018-02-06T15:37:54.076Z,24.93
2018-02-06T15:42:57.916Z,23.80
2018-02-06T15:48:02.511Z,25.47
2018-02-06T15:53:05.987Z,24.83
2018-02-06T15:58:10.623Z,26.57
2018-02-06T16:03:14.120Z,26.17
2018-02-06T16:08:17.640Z,26.40
2018-02-06T16:13:20.730Z,26.23
2018-02-06T16:18:25.335Z,25.40
2018-02-06T16:23:30.903Z,24.90
2018-02-06T16:28:35.492Z,25.63
2018-02-06T16:33:38.577Z,24.57
2018-02-06T16:38:43.020Z,26.13
2018-02-06T16:43:47.600Z,26.83
2018-02-06T16:48:51.456Z,26.93
2018-02-06T16:53:54.931Z,25.87
2018-02-06T16:58:58.779Z,26.27
2018-02-06T17:04:02.263Z,27.00
2018-02-06T17:09:05.366Z,25.90
2018-02-06T17:14:09.630Z,25.57
2018-02-06T17:19:13.096Z,27.77
2018-02-06T17:24:16.183Z,28.37
2018-02-06T17:29:19.712Z,26.20
2018-02-06T17:34:24.264Z,28.87
2018-02-06T17:39:27.851Z,26.45
2018-02-06T17:44:31.684Z,26.27
2018-02-06T17:49:35.564Z,26.80
2018-02-06T17:54:40.594Z,25.80
2018-02-06T17:59:43.704Z,26.70
2018-02-06T18:04:47.956Z,26.83
2018-02-06T18:09:51.036Z,28.43
2018-02-06T18:14:54.120Z,27.73
2018-02-06T18:19:58.722Z,29.00
2018-02-06T18:25:01.868Z,28.27
2018-02-06T18:30:06.339Z,29.60
2018-02-06T18:35:10.217Z,28.87
2018-02-06T18:40:13.288Z,29.70
2018-02-06T18:45:17.301Z,27.90
2018-02-06T18:50:20.395Z,29.00
2018-02-06T18:55:23.495Z,29.30
2018-02-06T19:00:26.980Z,29.90
2018-02-06T19:05:31.187Z,30.17
2018-02-06T19:10:35.044Z,33.57
2018-02-06T19:15:38.352Z,34.37
2018-02-06T19:20:42.676Z,32.70
2018-02-06T19:25:47.124Z,32.33
2018-02-06T19:30:51.563Z,32.60
2018-02-06T19:35:56.016Z,31.65
2018-02-06T19:40:59.872Z,32.57
2018-02-06T19:46:02.955Z,32.78
2018-02-06T19:51:07.663Z,34.30
2018-02-06T19:56:11.636Z,32.83
2018-02-06T20:01:16.079Z,34.90
2018-02-06T20:06:19.170Z,33.60
2018-02-06T20:11:22.644Z,34.53
2018-02-06T20:16:25.732Z,34.17
2018-02-06T20:21:30.366Z,33.77
2018-02-06T20:26:33.840Z,32.70
2018-02-06T20:31:37.706Z,33.33
2018-02-06T20:36:41.011Z,33.00
2018-02-06T20:41:45.051Z,33.03
2018-02-06T20:46:48.155Z,32.73
2018-02-06T20:51:51.249Z,33.77
2018-02-06T20:56:54.348Z,33.47
2018-02-06T21:01:58.208Z,33.63
2018-02-06T21:07:01.292Z,33.80
2018-02-06T21:12:04.398Z,33.60
2018-02-06T21:17:07.472Z,34.40
2018-02-06T21:22:10.559Z,35.03
2018-02-06T21:27:13.637Z,36.40
2018-02-06T21:32:16.724Z,37.37
2018-02-06T21:37:19.807Z,35.97
2018-02-06T21:42:24.793Z,34.93
2018-02-06T21:47:28.672Z,32.67
2018-02-06T21:52:31.755Z,34.53
2018-02-06T21:57:36.036Z,37.40
2018-02-06T22:02:40.251Z,40.70
2018-02-06T22:07:43.336Z,38.97
2018-02-06T22:12:47.192Z,36.13
2018-02-06T22:17:51.051Z,36.83
2018-02-06T22:22:55.267Z,37.08
2018-02-06T22:27:59.484Z,38.17
2018-02-06T22:33:04.077Z,36.53
2018-02-06T22:38:07.187Z,35.33
2018-02-06T22:43:11.404Z,36.55
2018-02-06T22:48:14.484Z,36.43
2018-02-06T22:53:17.567Z,36.37
2018-02-06T22:58:21.140Z,36.77
2018-02-06T23:03:25.588Z,35.63
2018-02-06T23:08:28.712Z,33.40
2018-02-06T23:13:31.805Z,33.27
2018-02-06T23:18:34.943Z,33.37
2018-02-06T23:23:39.375Z,33.47
2018-02-06T23:28:42.880Z,36.50
2018-02-06T23:33:45.977Z,36.00
2018-02-06T23:38:49.099Z,35.50
2018-02-06T23:43:52.188Z,35.10
2018-02-06T23:48:56.825Z,33.27
2018-02-06T23:53:59.916Z,33.25
2018-02-06T23:59:04.151Z,33.97
